Terminal Aerodrome Forecast
Issued by NWS

Home | Current Version | Previous Version | Text Only | Print | Product List | Glossary On
Versions: 1 2 3 4 5 6 7 8 9 10 11 12 13 14 15 16 17 18 19 20 21 22 23 24 25 26
907
FTUS45 KGJT 201129
TAFASE
TAF
KASE 201129Z 2012/2112 20005KT P6SM FEW150
     FM201500 VRB03KT P6SM FEW150
     FM201800 36006KT P6SM FEW100
     FM202000 33007KT P6SM SCT100
     FM210200 17007KT P6SM FEW100 BKN130
     FM210600 21005KT P6SM BKN200=

USA.gov is the U.S. government's official web portal to all federal, state and local government web resources and services.